ADDS METAR Data INFO
IDs: Format: Raw Decoded Include TAF

Data at: 1204 UTC 21 Jun 2018

KADU 211155Z AUTO 00000KT 10SM BKN008 BKN013 OVC018 16/15 A2969 RMK AO2 P0001
KADU 211135Z AUTO 22003KT 10SM OVC010 16/15 A2969 RMK AO2 P0001
KADU 211115Z AUTO 23003KT 10SM BKN009 OVC012 16/15 A2968 RMK AO2 P0001
KADU 211055Z AUTO 22004KT 4SM -DZ OVC007 16/15 A2968 RMK AO2
KADU 211035Z AUTO 23006KT 2 1/2SM +DZ OVC009 16/15 A2968 RMK AO2
KADU 211015Z AUTO 22003KT 2 1/2SM DZ OVC009 16/14 A2968 RMK AO2
KADU 210955Z AUTO 23005KT 3SM RA OVC007 16/14 A2968 RMK AO2
KADU 210935Z AUTO 24004KT 4SM BR OVC007 16/15 A2969 RMK AO2
KADU 210915Z AUTO 24003KT 7SM OVC007 16/15 A2968 RMK AO2
KADU 210855Z AUTO 25003KT 7SM OVC007 16/14 A2969 RMK AO2
KADU 210835Z AUTO 25005KT 3SM BR BKN007 OVC014 16/14 A2969 RMK AO2
KADU 210815Z AUTO 00000KT 2 1/2SM RA OVC007 16/15 A2969 RMK AO2
KADU 210755Z AUTO 25004KT 7SM OVC009 17/15 A2969 RMK AO2
KADU 210735Z AUTO 24005KT 7SM -DZ BKN007 OVC013 17/16 A2970 RMK AO2
KADU 210715Z AUTO 24004KT 3SM BR BKN007 OVC012 17/16 A2970 RMK AO2
KADU 210655Z AUTO 23007KT 5SM BR OVC007 17/16 A2970 RMK AO2
KADU 210635Z AUTO 22006KT 3SM DZ OVC009 18/16 A2970 RMK AO2
KADU 210615Z AUTO 21003KT 3SM RA OVC009 18/16 A2971 RMK AO2
KADU 210555Z AUTO 22004KT 7SM OVC007 18/16 A2972 RMK AO2
KADU 210535Z AUTO 20007KT 7SM -DZ BKN007 OVC012 18/16 A2973 RMK AO2
KADU 210515Z AUTO 21004KT 5SM BR BKN009 OVC012 18/16 A2973 RMK AO2
KADU 210455Z AUTO 22007KT 5SM BR OVC009 18/16 A2973 RMK AO2
KADU 210435Z AUTO 23006KT 7SM BKN009 OVC019 18/16 A2973 RMK AO2
KADU 210415Z AUTO 23007KT 10SM BKN011 OVC019 18/16 A2974 RMK AO2
KADU 210355Z AUTO 24007KT 10SM BKN012 OVC018 18/16 A2974 RMK AO2
KADU 210335Z AUTO 25004KT 10SM BKN010 OVC015 18/16 A2975 RMK AO2
KADU 210315Z AUTO 24008KT 10SM OVC012 18/17 A2975 RMK AO2
KADU 210255Z AUTO 23010G15KT 10SM OVC012 18/17 A2974 RMK AO2
KADU 210235Z AUTO 24007KT 10SM OVC012 18/17 A2974 RMK AO2
KADU 210215Z AUTO 25009KT 10SM OVC012 18/17 A2974 RMK AO2
KADU 210155Z AUTO 25006KT 10SM OVC012 19/17 A2974 RMK AO2
KADU 210135Z AUTO 24006KT 10SM SCT009 SCT012 BKN024 19/17 A2975 RMK AO2
KADU 210115Z AUTO 25007KT 10SM SCT013 BKN022 BKN036 19/17 A2976 RMK AO2
KADU 210055Z AUTO 25007KT 220V320 10SM SCT013 BKN024 OVC041 19/18 A2976 RMK AO2
KADU 210035Z AUTO 27003KT 10SM BKN013 BKN024 OVC041 19/18 A2977 RMK AO2
KADU 210015Z AUTO 26003KT 7SM SCT013 SCT019 OVC038 20/18 A2976 RMK AO2
KADU 202355Z AUTO 28004KT 10SM SCT013 BKN024 OVC040 21/18 A2976 RMK AO2
KADU 202335Z AUTO 29005KT 10SM SCT021 BKN039 OVC045 21/18 A2975 RMK AO2
KADU 202315Z AUTO 30007G14KT 10SM SCT018 BKN022 OVC041 21/19 A2974 RMK AO2
KADU 202255Z AUTO 30004KT 5SM -RA SCT016 OVC022 21/18 A2974 RMK AO2 P0001
KADU 202235Z AUTO 30007KT 270V330 10SM OVC022 21/18 A2974 RMK AO2
KADU 202215Z AUTO 30007KT 10SM OVC018 21/19 A2974 RMK AO2
KADU 202155Z AUTO 29006KT 10SM OVC016 21/19 A2974 RMK AO2
KADU 202135Z AUTO 29005KT 10SM OVC016 22/19 A2974 RMK AO2
KADU 202115Z AUTO 29008G15KT 7SM BKN016 OVC023 22/19 A2974 RMK AO2
KADU 202055Z AUTO 30009G16KT 10SM BKN014 OVC021 22/19 A2974 RMK AO2
KADU 202035Z AUTO 29009G16KT 10SM BKN016 BKN021 22/19 A2974 RMK AO2
KADU 202015Z AUTO 30007G17KT 260V320 10SM BKN015 22/19 A2975 RMK AO2
KADU 201955Z AUTO 31010G14KT 10SM OVC011 22/19 A2974 RMK AO2
KADU 201935Z AUTO 25003KT 10SM SCT011 22/20 A2975 RMK AO2
KADU 201915Z AUTO 28004G15KT 10SM SCT013 23/21 A2975 RMK AO2
KADU 201855Z AUTO 25006KT 10SM SCT065 23/21 A2976 RMK AO2 P0008
KADU 201835Z AUTO 28005KT 10SM SCT012 SCT021 22/21 A2977 RMK AO2 P0008
KADU 201815Z AUTO 29003KT 5SM RA SCT004 SCT012 SCT026 21/19 A2978 RMK AO2 P0008
KADU 201755Z AUTO 00000KT 7SM -RA SCT007 SCT020 BKN024 22/21 A2977 RMK AO2 P0010
KADU 201735Z AUTO 09004KT 7SM -RA SCT006 BKN020 OVC035 22/21 A2978 RMK AO2 P0007
KADU 201715Z AUTO 07007KT 4SM +RA SCT006 SCT016 BKN029 23/21 A2978 RMK AO2 P0003
KADU 201655Z AUTO 07006KT 10SM BKN010 BKN016 OVC021 23/21 A2979 RMK AO2
KADU 201635Z AUTO 08005KT 10SM OVC010 22/20 A2980 RMK AO2
KADU 201615Z AUTO 06006KT 10SM OVC008 22/20 A2981 RMK AO2
KADU 201555Z AUTO 06008KT 10SM OVC008 22/19 A2981 RMK AO2
KADU 201535Z AUTO 04006KT 7SM OVC008 21/19 A2981 RMK AO2
KADU 201515Z AUTO 03005KT 10SM OVC010 21/19 A2982 RMK AO2
KADU 201455Z AUTO 02005KT 10SM OVC010 21/19 A2982 RMK AO2
KADU 201435Z AUTO 36005KT 10SM BKN006 OVC014 21/19 A2983 RMK AO2
KADU 201415Z AUTO 01006KT 7SM OVC006 21/19 A2983 RMK AO2
KADU 201355Z AUTO 01006KT 10SM OVC006 21/19 A2984 RMK AO2
KADU 201335Z AUTO 36009KT 10SM OVC006 21/19 A2983 RMK AO2
KADU 201315Z AUTO 33006KT 10SM OVC006 21/19 A2984 RMK AO2
KADU 201255Z AUTO 33004KT 10SM OVC006 21/19 A2983 RMK AO2
KADU 201235Z AUTO 34003KT 10SM SCT006 BKN025 OVC110 21/19 A2983 RMK AO2
KADU 201215Z AUTO 00000KT 10SM BKN110 20/18 A2984 RMK AO2
KADU 201155Z AUTO 00000KT 10SM BKN100 20/18 A2984 RMK AO2
KADU 201135Z AUTO 35004KT 10SM BKN110 20/18 A2984 RMK AO2
KADU 201115Z AUTO 01006KT 10SM SCT014 SCT110 20/18 A2986 RMK AO2
KADU 201055Z AUTO 00000KT 10SM SCT014 BKN080 20/18 A2987 RMK AO2
KADU 201035Z AUTO 01003KT 10SM OVC090 20/18 A2987 RMK AO2
KADU 201015Z AUTO 01004KT 10SM SCT090 20/18 A2987 RMK AO2
KADU 200955Z AUTO 01006KT 10SM CLR 20/18 A2986 RMK AO2
KADU 200935Z AUTO 00000KT 10SM CLR 21/19 A2987 RMK AO2
KADU 200915Z AUTO 36008KT 10SM SCT008 SCT013 BKN033 21/19 A2987 RMK AO2
KADU 200855Z AUTO 34006KT 10SM BKN008 OVC014 21/19 A2987 RMK AO2
KADU 200835Z AUTO 34008KT 10SM OVC008 21/19 A2984 RMK AO2
KADU 200815Z AUTO 30003KT 10SM OVC008 21/19 A2987 RMK AO2
KADU 200755Z AUTO 31004KT 10SM OVC008 21/19 A2987 RMK AO2
KADU 200735Z AUTO 30005KT 10SM OVC008 21/19 A2986 RMK AO2
KADU 200715Z AUTO 28003KT 10SM BKN008 21/19 A2987 RMK AO2
KADU 200655Z AUTO 28005KT 10SM CLR 21/19 A2987 RMK AO2
KADU 200635Z AUTO 24004KT 10SM CLR 21/19 A2987 RMK AO2
KADU 200615Z AUTO 27003KT 10SM SCT013 SCT042 BKN060 22/19 A2989 RMK AO2
KADU 200555Z AUTO 23007KT 10SM SCT013 OVC036 22/20 A2991 RMK AO2
KADU 200535Z AUTO 20008KT 10SM BKN036 BKN065 22/21 A2989 RMK AO2
KADU 200515Z AUTO 17006KT 10SM SCT014 BKN027 OVC033 23/22 A2990 RMK AO2
KADU 200455Z AUTO 00000KT 7SM SCT010 SCT027 BKN060 23/22 A2989 RMK AO2
KADU 200435Z AUTO 00000KT 7SM SCT060 SCT070 BKN080 23/22 A2989 RMK AO2
KADU 200415Z AUTO 00000KT 10SM SCT007 SCT010 BKN018 23/22 A2989 RMK AO2
KADU 200355Z AUTO 00000KT 10SM SCT007 BKN012 OVC029 23/22 A2990 RMK AO2
KADU 200335Z AUTO 00000KT 10SM SCT012 BKN018 BKN027 23/21 A2990 RMK AO2
KADU 200315Z AUTO 00000KT 10SM SCT020 SCT027 BKN049 23/21 A2990 RMK AO2
KADU 200255Z AUTO 00000KT 10SM SCT040 BKN049 23/22 A2989 RMK AO2
KADU 200235Z AUTO 00000KT 10SM SCT040 SCT047 BKN080 23/21 A2989 RMK AO2
KADU 200215Z AUTO 12003KT 10SM SCT080 23/22 A2987 RMK AO2
KADU 200155Z AUTO 14003KT 10SM SCT014 SCT065 23/21 A2987 RMK AO2
KADU 200135Z AUTO 00000KT 10SM -RA SCT032 SCT044 BKN055 24/22 A2987 RMK AO2
KADU 200115Z AUTO 00000KT 10SM SCT030 BKN044 OVC055 24/22 A2988 RMK AO2
KADU 200055Z AUTO 00000KT 10SM SCT030 BKN042 OVC080 24/22 A2988 RMK AO2
KADU 200035Z AUTO 08003KT 7SM SCT018 SCT041 BKN060 24/22 A2988 RMK AO2
KADU 200015Z AUTO 00000KT 10SM SCT024 BKN050 OVC065 25/23 A2989 RMK AO2